createdAt,value
2023-02-06T00:00:47.485Z,16.02
2023-02-06T00:03:14.118Z,15.65
2023-02-06T00:05:40.704Z,15.20
2023-02-06T00:08:07.270Z,15.02
2023-02-06T00:10:33.891Z,14.50
2023-02-06T00:13:00.480Z,15.23
2023-02-06T00:15:27.206Z,13.98
2023-02-06T00:17:53.755Z,14.63
2023-02-06T00:20:20.325Z,14.27
2023-02-06T00:22:46.851Z,15.07
2023-02-06T00:25:13.360Z,13.23
2023-02-06T00:27:39.849Z,15.23
2023-02-06T00:30:06.860Z,13.75
2023-02-06T00:32:34.772Z,13.43
2023-02-06T00:35:01.334Z,13.68
2023-02-06T00:37:27.870Z,14.20
2023-02-06T00:39:54.382Z,12.88
2023-02-06T00:42:20.917Z,14.10
2023-02-06T00:44:47.438Z,12.90
2023-02-06T00:47:13.955Z,13.00
2023-02-06T00:49:40.468Z,13.38
2023-02-06T00:52:07.022Z,13.60
2023-02-06T00:54:33.590Z,11.95
2023-02-06T00:57:00.164Z,12.82
2023-02-06T00:59:26.692Z,11.50
2023-02-06T01:01:53.243Z,12.13
2023-02-06T01:04:19.781Z,12.30
2023-02-06T01:06:46.271Z,11.45
2023-02-06T01:09:12.838Z,13.43
2023-02-06T01:11:39.403Z,11.88
2023-02-06T01:14:05.918Z,11.38
2023-02-06T01:16:32.448Z,11.00
2023-02-06T01:18:58.969Z,11.65
2023-02-06T01:21:25.803Z,10.90
2023-02-06T01:23:54.637Z,11.82
2023-02-06T01:26:26.770Z,10.48
2023-02-06T01:28:54.260Z,9.68
2023-02-06T01:31:27.246Z,11.23
2023-02-06T01:33:55.398Z,10.32
2023-02-06T01:36:22.581Z,11.73
2023-02-06T01:38:51.859Z,10.02
2023-02-06T01:41:20.859Z,10.20
2023-02-06T01:44:08.241Z,9.27
2023-02-06T01:46:34.860Z,10.10
2023-02-06T01:49:02.199Z,9.77
2023-02-06T01:51:30.303Z,10.60
2023-02-06T01:54:02.239Z,9.55
2023-02-06T01:56:33.701Z,10.20
2023-02-06T01:59:03.015Z,9.15
2023-02-06T02:01:30.122Z,9.05
2023-02-06T02:04:08.493Z,9.32
2023-02-06T02:06:35.281Z,9.07
2023-02-06T02:09:03.827Z,8.93
2023-02-06T02:11:31.760Z,8.45
2023-02-06T02:13:58.643Z,8.68
2023-02-06T02:16:52.892Z,8.23
2023-02-06T02:20:02.119Z,8.80
2023-02-06T02:22:52.700Z,8.63
2023-02-06T02:25:34.764Z,8.68
2023-02-06T02:28:20.338Z,7.90
2023-02-06T02:31:05.568Z,8.27
2023-02-06T02:34:00.050Z,8.30
2023-02-06T02:36:34.603Z,7.45
2023-02-06T02:39:13.135Z,7.20
2023-02-06T02:42:11.929Z,8.07
2023-02-06T02:44:52.737Z,7.97
2023-02-06T02:47:23.831Z,6.93
2023-02-06T02:49:50.473Z,6.72
2023-02-06T02:52:18.915Z,7.03
2023-02-06T02:54:45.479Z,6.20
2023-02-06T02:57:17.794Z,7.72
2023-02-06T02:59:47.615Z,6.05
2023-02-06T03:02:28.797Z,7.20
2023-02-06T03:05:01.132Z,7.15
2023-02-06T03:07:37.722Z,6.47
2023-02-06T03:10:39.058Z,7.93
2023-02-06T03:13:18.319Z,6.50
2023-02-06T03:16:01.342Z,6.22
2023-02-06T03:18:34.660Z,6.13
2023-02-06T03:21:03.923Z,6.72
2023-02-06T03:23:33.610Z,6.57
2023-02-06T03:26:05.878Z,5.90
2023-02-06T03:28:35.902Z,5.90
2023-02-06T03:31:06.938Z,5.70
2023-02-06T03:33:40.056Z,5.68
2023-02-06T03:36:09.947Z,5.25
2023-02-06T03:38:36.932Z,5.00
2023-02-06T03:41:04.860Z,5.65
2023-02-06T03:43:32.258Z,5.30
2023-02-06T03:46:05.114Z,6.22
2023-02-06T03:48:39.761Z,5.27
2023-02-06T03:51:15.832Z,5.03
2023-02-06T03:53:44.770Z,6.30
2023-02-06T03:56:19.524Z,5.45
2023-02-06T03:58:46.029Z,5.57
2023-02-06T04:01:13.566Z,5.53
2023-02-06T04:03:40.107Z,4.43
2023-02-06T04:06:06.904Z,4.90
2023-02-06T04:08:33.440Z,4.75
2023-02-06T04:10:59.957Z,4.60
2023-02-06T04:13:26.455Z,5.05
2023-02-06T04:15:52.978Z,4.55
2023-02-06T04:18:19.497Z,4.55
2023-02-06T04:20:46.006Z,4.38
2023-02-06T04:23:12.549Z,4.65
2023-02-06T04:25:39.222Z,5.30
2023-02-06T04:28:06.047Z,4.20
2023-02-06T04:30:32.692Z,4.20
2023-02-06T04:32:59.195Z,4.20
2023-02-06T04:35:25.771Z,4.65
2023-02-06T04:37:52.566Z,4.20
2023-02-06T04:40:19.217Z,3.90
2023-02-06T04:42:46.285Z,4.53
2023-02-06T04:45:13.210Z,4.45
2023-02-06T04:47:40.063Z,4.05
2023-02-06T04:50:07.012Z,4.10
2023-02-06T04:52:33.626Z,3.92
2023-02-06T04:55:00.138Z,3.97
2023-02-06T04:57:26.903Z,3.70
2023-02-06T04:59:53.381Z,4.20
2023-02-06T05:02:19.908Z,3.95
2023-02-06T05:04:46.458Z,3.90
2023-02-06T05:07:13.097Z,3.75
2023-02-06T05:09:39.597Z,3.58
2023-02-06T05:12:06.146Z,3.67
2023-02-06T05:14:32.670Z,3.50
2023-02-06T05:16:59.233Z,3.80
2023-02-06T05:19:25.752Z,3.65
2023-02-06T05:21:52.271Z,3.10
2023-02-06T05:24:18.994Z,3.38
2023-02-06T05:26:46.492Z,3.05
2023-02-06T05:29:13.115Z,3.35
2023-02-06T05:31:40.350Z,3.13
2023-02-06T05:34:06.982Z,3.33
2023-02-06T05:36:33.508Z,3.63
2023-02-06T05:39:00.016Z,3.53
2023-02-06T05:41:26.515Z,3.47
2023-02-06T05:43:53.031Z,3.72
2023-02-06T05:46:19.619Z,3.60
2023-02-06T05:48:46.195Z,3.08
2023-02-06T05:51:12.682Z,3.80
2023-02-06T05:53:39.306Z,3.55
2023-02-06T05:56:06.029Z,3.47
2023-02-06T05:58:33.384Z,3.03
2023-02-06T06:00:59.965Z,3.60
2023-02-06T06:03:26.555Z,3.70
2023-02-06T06:05:54.036Z,4.03
2023-02-06T06:08:21.144Z,3.50
2023-02-06T06:10:50.676Z,3.67
2023-02-06T06:13:17.507Z,3.83
2023-02-06T06:15:44.052Z,3.50
2023-02-06T06:18:11.091Z,3.72
2023-02-06T06:20:37.602Z,3.45
2023-02-06T06:23:04.143Z,4.00
2023-02-06T06:25:30.691Z,3.40
2023-02-06T06:27:57.270Z,3.03
2023-02-06T06:30:23.975Z,3.47
2023-02-06T06:32:50.508Z,3.50
2023-02-06T06:35:17.108Z,3.35
2023-02-06T06:37:43.621Z,3.28
2023-02-06T06:40:10.948Z,3.28
2023-02-06T06:42:37.496Z,3.03
2023-02-06T06:45:04.486Z,3.55
2023-02-06T06:47:31.021Z,3.95
2023-02-06T06:49:57.607Z,3.90
2023-02-06T06:52:25.561Z,3.45
2023-02-06T06:54:53.260Z,3.53
2023-02-06T06:57:20.739Z,2.85
2023-02-06T06:59:47.299Z,3.40
2023-02-06T07:02:13.827Z,3.78
2023-02-06T07:04:40.380Z,3.20
2023-02-06T07:07:07.286Z,3.30
2023-02-06T07:09:33.859Z,3.22
2023-02-06T07:12:00.400Z,3.25
2023-02-06T07:14:26.863Z,3.38
2023-02-06T07:16:53.602Z,3.30
2023-02-06T07:19:21.289Z,3.60
2023-02-06T07:21:47.936Z,3.55
2023-02-06T07:24:14.627Z,3.97
2023-02-06T07:26:41.561Z,3.72
2023-02-06T07:29:08.093Z,4.85
2023-02-06T07:31:34.659Z,5.47
2023-02-06T07:34:02.303Z,4.53
2023-02-06T07:36:28.897Z,3.97
2023-02-06T07:38:55.419Z,3.95
2023-02-06T07:41:21.963Z,4.25
2023-02-06T07:43:48.549Z,3.90
2023-02-06T07:46:15.220Z,4.50
2023-02-06T07:48:42.464Z,4.45
2023-02-06T07:51:10.016Z,4.07
2023-02-06T07:53:36.701Z,4.90
2023-02-06T07:58:40.425Z,4.57
2023-02-06T08:01:07.721Z,4.18
2023-02-06T08:03:34.677Z,4.28
2023-02-06T08:06:01.339Z,5.03
2023-02-06T08:08:27.845Z,4.28
2023-02-06T08:10:54.376Z,4.47
2023-02-06T08:13:20.868Z,4.50
2023-02-06T08:15:47.375Z,4.72
2023-02-06T08:18:13.888Z,3.80
2023-02-06T08:20:40.672Z,4.72
2023-02-06T08:23:08.073Z,4.45
2023-02-06T08:25:35.067Z,3.50
2023-02-06T08:28:02.049Z,4.60
2023-02-06T08:30:28.910Z,4.40
2023-02-06T08:32:55.734Z,4.50
2023-02-06T08:35:22.296Z,4.05
2023-02-06T08:37:48.806Z,4.50
2023-02-06T08:40:15.343Z,4.38
2023-02-06T08:42:41.950Z,4.18
2023-02-06T08:45:09.070Z,4.72
2023-02-06T08:47:35.642Z,3.45
2023-02-06T08:50:03.538Z,3.90
2023-02-06T08:52:30.416Z,4.18
2023-02-06T08:54:56.947Z,3.78
2023-02-06T08:57:23.592Z,4.22
2023-02-06T08:59:50.694Z,4.25
2023-02-06T09:02:17.239Z,3.83
2023-02-06T09:04:43.798Z,3.65
2023-02-06T09:07:10.338Z,3.97
2023-02-06T09:09:36.959Z,4.18
2023-02-06T09:12:04.029Z,3.50
2023-02-06T09:14:31.304Z,4.50
2023-02-06T09:16:58.349Z,3.42
2023-02-06T09:19:25.832Z,3.63
2023-02-06T09:21:52.464Z,3.60
2023-02-06T09:24:19.286Z,2.90
2023-02-06T09:26:59.042Z,3.38
2023-02-06T09:29:28.907Z,3.38
2023-02-06T09:31:57.419Z,3.47
2023-02-06T09:34:25.846Z,3.15
2023-02-06T09:36:54.825Z,3.67
2023-02-06T09:39:21.444Z,3.85
2023-02-06T09:41:52.211Z,3.38
2023-02-06T09:44:21.541Z,3.30
2023-02-06T09:46:53.855Z,3.03
2023-02-06T09:49:35.926Z,3.35
2023-02-06T09:52:31.199Z,3.10
2023-02-06T09:55:35.798Z,3.05
2023-02-06T09:58:20.370Z,2.60
2023-02-06T10:00:53.473Z,3.42
2023-02-06T10:03:47.521Z,3.05
2023-02-06T10:06:32.914Z,3.03
2023-02-06T10:09:12.149Z,3.50
2023-02-06T10:11:45.773Z,2.92
2023-02-06T10:14:26.093Z,3.53
2023-02-06T10:17:01.325Z,3.17
2023-02-06T10:19:43.875Z,3.25
2023-02-06T10:22:16.895Z,2.95
2023-02-06T10:25:01.599Z,2.40
2023-02-06T10:27:28.103Z,3.13
2023-02-06T10:29:54.717Z,2.67
2023-02-06T10:32:42.764Z,3.00
2023-02-06T10:35:50.138Z,2.78
2023-02-06T10:38:33.968Z,2.55
2023-02-06T10:41:15.269Z,2.38
2023-02-06T10:43:50.907Z,2.47
2023-02-06T10:46:48.374Z,2.45
2023-02-06T10:49:25.609Z,2.30
2023-02-06T10:51:58.825Z,2.13
2023-02-06T10:54:31.601Z,3.10
2023-02-06T10:56:59.684Z,3.00
2023-02-06T10:59:31.486Z,2.50
2023-02-06T11:02:04.129Z,2.85
2023-02-06T11:04:41.162Z,2.50
2023-02-06T11:07:16.427Z,2.50
2023-02-06T11:09:43.662Z,2.38
2023-02-06T11:12:39.513Z,2.58
2023-02-06T11:15:36.300Z,2.10
2023-02-06T11:18:06.147Z,2.13
2023-02-06T11:20:36.805Z,2.47
2023-02-06T11:23:24.965Z,2.30
2023-02-06T11:26:14.363Z,2.10
2023-02-06T11:28:56.236Z,2.05
2023-02-06T11:31:44.768Z,2.00
2023-02-06T11:34:42.957Z,2.30
2023-02-06T11:37:48.323Z,2.17
2023-02-06T11:40:35.195Z,2.03
2023-02-06T11:43:22.834Z,2.08
2023-02-06T11:45:52.672Z,2.00
2023-02-06T11:48:54.504Z,2.30
2023-02-06T11:51:22.643Z,2.40
2023-02-06T11:53:59.563Z,2.17
2023-02-06T11:56:27.047Z,2.08
2023-02-06T11:59:19.045Z,2.20
2023-02-06T12:01:48.038Z,2.35
2023-02-06T12:04:24.553Z,2.08
2023-02-06T12:07:16.186Z,2.00
2023-02-06T12:09:43.399Z,2.25
2023-02-06T12:12:25.536Z,2.22
2023-02-06T12:14:59.098Z,2.20
2023-02-06T12:17:36.467Z,2.10
2023-02-06T12:20:26.441Z,1.95
2023-02-06T12:23:22.800Z,2.72
2023-02-06T12:25:52.982Z,2.10
2023-02-06T12:28:44.407Z,1.70
2023-02-06T12:31:47.933Z,2.10
2023-02-06T12:34:21.946Z,2.20
2023-02-06T12:37:21.343Z,1.83
2023-02-06T12:39:48.900Z,1.85
2023-02-06T12:42:29.551Z,1.67
2023-02-06T12:45:10.663Z,2.13
2023-02-06T12:48:02.276Z,1.70
2023-02-06T12:50:40.528Z,1.63
2023-02-06T12:53:32.808Z,1.50
2023-02-06T12:56:12.714Z,2.00
2023-02-06T12:58:42.322Z,1.85
2023-02-06T13:01:34.317Z,1.75
2023-02-06T13:04:26.776Z,2.00
2023-02-06T13:07:09.670Z,2.00
2023-02-06T13:09:46.802Z,1.60
2023-02-06T13:12:15.134Z,1.67
2023-02-06T13:14:51.352Z,1.77
2023-02-06T13:17:24.511Z,1.95
2023-02-06T13:20:07.137Z,1.88
2023-02-06T13:22:45.856Z,1.70
2023-02-06T13:25:30.580Z,1.67
2023-02-06T13:28:01.269Z,1.58
2023-02-06T13:30:30.958Z,1.35
2023-02-06T13:33:15.024Z,1.75
2023-02-06T13:38:24.362Z,1.73
2023-02-06T13:41:12.999Z,2.00
2023-02-06T13:43:41.883Z,1.67
2023-02-06T13:46:15.466Z,1.48
2023-02-06T13:48:57.139Z,2.03
2023-02-06T13:51:26.586Z,1.80
2023-02-06T13:54:17.832Z,1.40
2023-02-06T13:56:44.406Z,1.33
2023-02-06T13:59:19.030Z,1.80
2023-02-06T14:01:45.797Z,1.80
2023-02-06T14:04:20.045Z,1.50
2023-02-06T14:07:08.919Z,1.75
2023-02-06T14:09:44.410Z,1.50
2023-02-06T14:12:45.030Z,1.25
2023-02-06T14:15:15.727Z,1.27
2023-02-06T14:18:05.584Z,1.77
2023-02-06T14:20:59.339Z,1.75
2023-02-06T14:24:03.087Z,1.52
2023-02-06T14:26:51.193Z,1.10
2023-02-06T14:29:44.408Z,1.30
2023-02-06T14:32:23.767Z,1.35
2023-02-06T14:35:05.097Z,1.73
2023-02-06T14:37:40.618Z,1.67
2023-02-06T14:40:29.705Z,1.30
2023-02-06T14:43:04.524Z,1.65
2023-02-06T14:45:41.771Z,1.20
2023-02-06T14:48:22.398Z,1.30
2023-02-06T14:50:54.453Z,1.40
2023-02-06T14:56:04.817Z,1.33
2023-02-06T14:58:31.418Z,1.40
2023-02-06T15:01:20.008Z,1.17
2023-02-06T15:03:49.039Z,1.42
2023-02-06T15:06:37.709Z,1.60
2023-02-06T15:09:05.707Z,1.40
2023-02-06T15:11:33.152Z,1.05
2023-02-06T15:14:18.732Z,1.40
2023-02-06T15:16:51.083Z,1.58
2023-02-06T15:19:37.179Z,1.60
2023-02-06T15:22:14.182Z,1.13
2023-02-06T15:24:58.964Z,1.30
2023-02-06T15:27:32.083Z,1.50
2023-02-06T15:30:00.241Z,1.40
2023-02-06T15:32:37.846Z,1.30
2023-02-06T15:35:38.066Z,1.40
2023-02-06T15:38:16.044Z,1.50
2023-02-06T15:40:46.352Z,1.60
2023-02-06T15:43:20.013Z,1.27
2023-02-06T15:48:25.274Z,1.77
2023-02-06T15:51:00.833Z,1.50
2023-02-06T15:53:31.200Z,1.10
2023-02-06T15:55:58.557Z,1.65
2023-02-06T15:58:26.260Z,1.23
2023-02-06T16:00:55.679Z,1.33
2023-02-06T16:03:27.359Z,1.38
2023-02-06T16:05:56.563Z,1.23
2023-02-06T16:08:28.419Z,1.20
2023-02-06T16:11:00.976Z,2.15
2023-02-06T16:13:30.605Z,1.02
2023-02-06T16:16:21.553Z,1.45
2023-02-06T16:18:52.035Z,1.20
2023-02-06T16:21:23.373Z,1.40
2023-02-06T16:24:02.518Z,1.10
2023-02-06T16:26:31.564Z,1.50
2023-02-06T16:29:03.573Z,1.50
2023-02-06T16:31:34.164Z,1.30
2023-02-06T16:34:03.279Z,1.10
2023-02-06T16:36:32.310Z,1.40
2023-02-06T16:39:04.199Z,1.30
2023-02-06T16:41:33.770Z,1.40
2023-02-06T16:44:01.717Z,1.80
2023-02-06T16:46:29.217Z,1.77
2023-02-06T16:48:56.466Z,1.40
2023-02-06T16:51:26.146Z,1.33
2023-02-06T16:53:52.964Z,1.80
2023-02-06T16:56:21.201Z,1.30
2023-02-06T16:58:48.431Z,1.95
2023-02-06T17:01:26.548Z,2.17
2023-02-06T17:03:53.422Z,2.22
2023-02-06T17:06:26.988Z,1.75
2023-02-06T17:08:57.896Z,1.42
2023-02-06T17:11:24.942Z,2.00
2023-02-06T17:13:51.780Z,1.80
2023-02-06T17:16:21.720Z,2.17
2023-02-06T17:18:49.634Z,1.83
2023-02-06T17:21:19.080Z,1.77
2023-02-06T17:23:46.484Z,2.13
2023-02-06T17:26:15.825Z,2.45
2023-02-06T17:28:42.392Z,2.20
2023-02-06T17:31:09.599Z,2.00
2023-02-06T17:33:36.664Z,2.22
2023-02-06T17:36:07.502Z,1.85
2023-02-06T17:38:34.343Z,2.20
2023-02-06T17:41:00.924Z,2.45
2023-02-06T17:43:28.059Z,3.15
2023-02-06T17:45:54.583Z,5.15
2023-02-06T17:48:21.346Z,5.88
2023-02-06T17:50:47.891Z,7.55
2023-02-06T17:53:14.819Z,8.15
2023-02-06T17:55:41.741Z,8.00
2023-02-06T17:58:08.389Z,9.20
2023-02-06T18:00:35.170Z,9.18
2023-02-06T18:03:02.126Z,8.95
2023-02-06T18:05:28.724Z,9.35
2023-02-06T18:07:55.308Z,9.65
2023-02-06T18:10:24.222Z,8.93
2023-02-06T18:12:50.929Z,9.30
2023-02-06T18:15:17.612Z,9.45
2023-02-06T18:17:44.237Z,10.25
2023-02-06T18:20:12.178Z,10.07
2023-02-06T18:22:41.254Z,13.23
2023-02-06T18:25:13.749Z,12.15
2023-02-06T18:27:41.499Z,11.55
2023-02-06T18:30:08.956Z,11.00
2023-02-06T18:32:38.270Z,11.10
2023-02-06T18:35:06.286Z,10.82
2023-02-06T18:37:32.894Z,10.70
2023-02-06T18:39:59.428Z,11.35
2023-02-06T18:42:44.839Z,9.90
2023-02-06T18:45:11.544Z,10.75
2023-02-06T18:47:39.065Z,10.20
2023-02-06T18:50:06.004Z,9.82
2023-02-06T18:52:32.892Z,10.98
2023-02-06T18:54:59.466Z,9.32
2023-02-06T18:57:26.024Z,9.73
2023-02-06T18:59:52.560Z,10.45
2023-02-06T19:02:19.134Z,10.30
2023-02-06T19:04:45.733Z,8.85
2023-02-06T19:07:12.375Z,9.98
2023-02-06T19:09:39.057Z,9.68
2023-02-06T19:12:05.870Z,9.50
2023-02-06T19:14:32.578Z,10.55
2023-02-06T19:16:59.184Z,9.88
2023-02-06T19:19:25.852Z,9.60
2023-02-06T19:21:52.604Z,9.20
2023-02-06T19:24:20.302Z,8.88
2023-02-06T19:26:46.829Z,9.23
2023-02-06T19:29:33.643Z,9.52
2023-02-06T19:32:06.446Z,8.57
2023-02-06T19:34:36.188Z,8.85
2023-02-06T19:37:08.781Z,8.80
2023-02-06T19:39:37.000Z,9.18
2023-02-06T19:42:06.613Z,8.73
2023-02-06T19:44:34.190Z,8.43
2023-02-06T19:47:01.166Z,9.10
2023-02-06T19:49:28.551Z,8.23
2023-02-06T19:51:55.134Z,7.85
2023-02-06T19:54:21.740Z,8.10
2023-02-06T19:56:49.027Z,8.15
2023-02-06T19:59:22.122Z,7.70
2023-02-06T20:01:54.291Z,7.10
2023-02-06T20:04:24.650Z,8.45
2023-02-06T20:06:51.785Z,8.25
2023-02-06T20:09:20.530Z,7.70
2023-02-06T20:11:48.929Z,8.02
2023-02-06T20:14:16.374Z,7.50
2023-02-06T20:16:43.689Z,7.78
2023-02-06T20:19:18.312Z,7.40
2023-02-06T20:21:48.493Z,7.88
2023-02-06T20:24:20.637Z,8.35
2023-02-06T20:26:48.582Z,8.30
2023-02-06T20:29:32.820Z,7.50
2023-02-06T20:32:00.861Z,8.15
2023-02-06T20:34:27.915Z,7.97
2023-02-06T20:36:55.568Z,7.82
2023-02-06T20:39:22.184Z,8.38
2023-02-06T20:41:50.276Z,7.35
2023-02-06T20:44:18.190Z,7.05
2023-02-06T20:46:45.147Z,7.40
2023-02-06T20:49:17.323Z,8.30
2023-02-06T20:51:43.894Z,7.53
2023-02-06T20:54:11.591Z,7.18
2023-02-06T20:56:39.466Z,8.07
2023-02-06T20:59:06.503Z,7.60
2023-02-06T21:01:33.290Z,7.57
2023-02-06T21:04:03.203Z,8.32
2023-02-06T21:06:31.246Z,7.80
2023-02-06T21:09:00.161Z,7.68
2023-02-06T21:11:29.554Z,7.80
2023-02-06T21:13:58.936Z,7.15
2023-02-06T21:16:26.967Z,7.28
2023-02-06T21:18:54.522Z,7.80
2023-02-06T21:21:21.546Z,7.60
2023-02-06T21:23:48.422Z,8.00
2023-02-06T21:26:17.361Z,7.88
2023-02-06T21:28:45.186Z,7.00
2023-02-06T21:31:21.316Z,7.47
2023-02-06T21:33:49.240Z,7.03
2023-02-06T21:36:16.070Z,7.32
2023-02-06T21:38:43.150Z,8.32
2023-02-06T21:41:13.129Z,8.50
2023-02-06T21:43:40.052Z,7.38
2023-02-06T21:46:06.921Z,8.13
2023-02-06T21:48:34.565Z,6.88
2023-02-06T21:51:11.530Z,7.30
2023-02-06T21:53:38.541Z,7.50
2023-02-06T21:56:13.629Z,8.70
2023-02-06T21:58:40.202Z,7.30
2023-02-06T22:01:08.828Z,7.75
2023-02-06T22:03:36.073Z,7.57
2023-02-06T22:06:08.724Z,8.38
2023-02-06T22:08:36.749Z,8.00
2023-02-06T22:11:11.252Z,7.47
2023-02-06T22:13:37.739Z,8.32
2023-02-06T22:16:04.592Z,7.45
2023-02-06T22:18:31.122Z,7.43
2023-02-06T22:21:24.791Z,7.30
2023-02-06T22:23:52.230Z,7.78
2023-02-06T22:26:21.042Z,7.40
2023-02-06T22:28:47.992Z,7.57
2023-02-06T22:31:20.431Z,7.10
2023-02-06T22:33:46.973Z,7.65
2023-02-06T22:36:21.534Z,6.22
2023-02-06T22:38:52.723Z,7.05
2023-02-06T22:41:19.322Z,7.80
2023-02-06T22:43:48.562Z,6.32
2023-02-06T22:46:36.593Z,7.20
2023-02-06T22:49:05.369Z,6.47
2023-02-06T22:51:32.467Z,6.55
2023-02-06T22:53:59.289Z,6.38
2023-02-06T22:56:31.044Z,6.13
2023-02-06T22:59:02.312Z,6.60
2023-02-06T23:01:37.407Z,6.07
2023-02-06T23:04:06.534Z,6.10
2023-02-06T23:06:34.725Z,7.13
2023-02-06T23:09:02.642Z,6.88
2023-02-06T23:11:29.196Z,6.95
2023-02-06T23:13:58.474Z,6.50
2023-02-06T23:16:26.262Z,6.22
2023-02-06T23:18:53.113Z,6.47
2023-02-06T23:21:21.480Z,6.25
2023-02-06T23:23:48.682Z,6.40
2023-02-06T23:26:17.247Z,6.35
2023-02-06T23:28:43.739Z,5.97
2023-02-06T23:31:10.614Z,5.43
2023-02-06T23:33:37.755Z,5.43
2023-02-06T23:36:11.496Z,5.43
2023-02-06T23:41:17.598Z,5.47
2023-02-06T23:43:44.674Z,5.60
2023-02-06T23:46:12.592Z,5.65
2023-02-06T23:48:39.631Z,5.13
2023-02-06T23:51:06.637Z,5.43
2023-02-06T23:53:33.196Z,6.30
2023-02-06T23:55:59.879Z,5.25
2023-02-06T23:58:26.629Z,5.38
